createdAt,value
2022-11-20T00:00:29.644Z,99355.58
2022-11-20T00:03:24.002Z,99357.10
2022-11-20T00:06:12.757Z,99351.11
2022-11-20T00:08:48.219Z,99351.28
2022-11-20T00:11:57.992Z,99348.54
2022-11-20T00:14:51.482Z,99347.16
2022-11-20T00:18:03.209Z,99344.06
2022-11-20T00:28:21.272Z,99343.20
2022-11-20T00:30:52.366Z,99348.02
2022-11-20T00:32:15.235Z,99346.13
2022-11-20T00:43:38.995Z,99345.27
2022-11-20T00:46:47.801Z,99344.41
2022-11-20T00:50:27.703Z,99346.29
2022-11-20T01:01:17.035Z,99356.05
2022-11-20T01:04:30.467Z,99360.88
2022-11-20T01:07:44.811Z,99362.94
2022-11-20T01:10:49.293Z,99360.36
2022-11-20T01:18:05.342Z,99366.36
2022-11-20T01:21:25.743Z,99362.93
2022-11-20T01:27:14.617Z,99363.45
2022-11-20T01:30:20.131Z,99364.32
2022-11-20T01:33:18.773Z,99361.74
2022-11-20T01:36:19.488Z,99360.55
2022-11-20T01:39:01.608Z,99357.46
2022-11-20T01:42:37.566Z,99361.23
2022-11-20T01:45:53.299Z,99355.39
2022-11-20T01:48:43.065Z,99350.42
2022-11-20T01:51:40.881Z,99356.25
2022-11-20T01:54:55.430Z,99355.39
2022-11-20T01:57:48.279Z,99356.23
2022-11-20T02:00:34.747Z,99357.27
2022-11-20T02:03:12.721Z,99352.65
2022-11-20T02:06:00.179Z,99352.98
2022-11-20T02:08:47.575Z,99350.41
2022-11-20T02:11:21.549Z,99346.61
2022-11-20T02:13:59.663Z,99346.80
2022-11-20T02:16:39.286Z,99349.89
2022-11-20T02:19:32.383Z,99344.91
2022-11-20T02:22:30.375Z,99347.31
2022-11-20T02:25:11.874Z,99342.50
2022-11-20T02:28:03.415Z,99335.80
2022-11-20T02:30:55.814Z,99335.45
2022-11-20T02:33:44.645Z,99337.01
2022-11-20T02:36:58.961Z,99335.11
2022-11-20T02:39:37.455Z,99337.02
2022-11-20T02:42:31.169Z,99336.15
2022-11-20T02:45:14.554Z,99334.44
2022-11-20T02:47:52.613Z,99334.10
2022-11-20T02:50:55.636Z,99329.28
2022-11-20T02:53:57.801Z,99330.33
2022-11-20T02:56:49.241Z,99329.12
2022-11-20T02:59:43.486Z,99324.99
2022-11-20T03:02:29.060Z,99321.90
2022-11-20T03:07:57.505Z,99322.42
2022-11-20T03:10:35.351Z,99322.59
2022-11-20T03:13:15.112Z,99320.87
2022-11-20T03:15:54.515Z,99317.79
2022-11-20T03:18:45.798Z,99318.13
2022-11-20T03:21:32.867Z,99314.52
2022-11-20T03:24:06.284Z,99313.83
2022-11-20T03:26:43.464Z,99316.58
2022-11-20T03:29:30.892Z,99316.41
2022-11-20T03:32:04.915Z,99314.86
2022-11-20T03:34:43.725Z,99314.69
2022-11-20T03:37:24.382Z,99309.38
2022-11-20T03:39:59.434Z,99304.05
2022-11-20T03:42:48.279Z,99302.67
2022-11-20T03:45:35.388Z,99301.13
2022-11-20T03:48:17.648Z,99299.75
2022-11-20T03:51:26.434Z,99302.34
2022-11-20T03:54:04.336Z,99300.45
2022-11-20T03:56:40.560Z,99296.32
2022-11-20T03:59:16.264Z,99299.57
2022-11-20T04:01:52.637Z,99296.15
2022-11-20T04:04:38.792Z,99293.92
2022-11-20T04:07:15.513Z,99293.23
2022-11-20T04:09:53.395Z,99293.05
2022-11-20T04:12:33.362Z,99297.00
2022-11-20T04:15:16.267Z,99301.97
2022-11-20T04:18:00.554Z,99302.98
2022-11-20T04:20:41.439Z,99306.59
2022-11-20T04:26:16.222Z,99302.61
2022-11-20T04:29:04.451Z,99303.64
2022-11-20T04:32:06.252Z,99301.23
2022-11-20T04:34:48.234Z,99299.85
2022-11-20T04:37:28.063Z,99301.56
2022-11-20T04:40:07.372Z,99302.08
2022-11-20T04:42:50.807Z,99307.41
2022-11-20T04:45:50.901Z,99309.27
2022-11-20T04:48:31.309Z,99304.98
2022-11-20T04:51:10.455Z,99304.47
2022-11-20T04:53:46.077Z,99302.05
2022-11-20T04:56:29.095Z,99308.05
2022-11-20T04:59:20.893Z,99308.05
2022-11-20T05:02:04.806Z,99313.72
2022-11-20T05:04:48.077Z,99314.05
2022-11-20T05:07:21.299Z,99307.00
2022-11-20T05:10:06.803Z,99308.91
2022-11-20T05:12:47.936Z,99307.02
2022-11-20T05:15:40.708Z,99305.98
2022-11-20T05:18:37.805Z,99302.04
2022-11-20T05:21:42.214Z,99304.09
2022-11-20T05:24:17.419Z,99303.41
2022-11-20T05:26:53.765Z,99305.80
2022-11-20T05:29:32.988Z,99304.77
2022-11-20T05:32:15.159Z,99299.28
2022-11-20T05:35:01.433Z,99297.91
2022-11-20T05:37:44.386Z,99298.42
2022-11-20T05:40:17.984Z,99298.08
2022-11-20T05:42:51.003Z,99296.53
2022-11-20T05:45:28.303Z,99291.05
2022-11-20T05:48:03.095Z,99287.96
2022-11-20T05:50:40.118Z,99290.02
2022-11-20T05:53:27.708Z,99290.19
2022-11-20T05:56:06.461Z,99290.70
2022-11-20T05:58:48.457Z,99295.86
2022-11-20T06:01:29.800Z,99295.52
2022-11-20T06:04:12.622Z,99294.48
2022-11-20T06:07:19.110Z,99294.49
2022-11-20T06:10:13.975Z,99297.93
2022-11-20T06:13:06.919Z,99293.46
2022-11-20T06:15:53.367Z,99299.30
2022-11-20T06:18:37.405Z,99306.50
2022-11-20T06:21:41.141Z,99306.68
2022-11-20T06:24:35.258Z,99301.88
2022-11-20T06:27:28.419Z,99297.27
2022-11-20T06:30:23.875Z,99303.27
2022-11-20T06:33:05.738Z,99304.30
2022-11-20T06:36:11.093Z,99304.31
2022-11-20T06:38:48.176Z,99303.30
2022-11-20T06:41:37.368Z,99298.99
2022-11-20T06:44:28.016Z,99299.70
2022-11-20T06:47:20.197Z,99299.52
2022-11-20T06:50:05.226Z,99300.55
2022-11-20T06:53:00.267Z,99297.81
2022-11-20T06:56:05.401Z,99299.02
2022-11-20T06:59:04.298Z,99297.83
2022-11-20T07:02:51.915Z,99296.11
2022-11-20T07:23:33.429Z,99272.98
2022-11-20T07:26:10.462Z,99270.73
2022-11-20T07:35:51.905Z,99267.30
2022-11-20T07:38:49.149Z,99264.04
2022-11-20T07:42:08.614Z,99265.59
2022-11-20T07:44:54.072Z,99267.81
2022-11-20T07:48:19.130Z,99268.33
2022-11-20T07:51:42.486Z,99269.37
2022-11-20T07:54:47.676Z,99267.13
2022-11-20T08:01:29.293Z,99270.40
2022-11-20T08:04:20.970Z,99260.95
2022-11-20T08:07:28.263Z,99255.11
2022-11-20T08:10:28.997Z,99252.02
2022-11-20T08:13:40.656Z,99256.14
2022-11-20T08:16:10.677Z,99257.34
2022-11-20T08:19:20.708Z,99258.02
2022-11-20T08:25:26.565Z,99253.39
2022-11-20T08:28:28.328Z,99248.40
2022-11-20T08:31:10.220Z,99249.92
2022-11-20T08:33:53.098Z,99249.40
2022-11-20T08:36:38.642Z,99248.88
2022-11-20T08:39:26.708Z,99243.90
2022-11-20T08:42:29.061Z,99245.77
2022-11-20T08:45:35.515Z,99243.71
2022-11-20T08:48:58.345Z,99244.22
2022-11-20T08:52:00.961Z,99245.58
2022-11-20T08:54:53.789Z,99244.38
2022-11-20T08:57:26.525Z,99240.77
2022-11-20T09:00:09.936Z,99235.42
2022-11-20T09:02:54.651Z,99233.20
2022-11-20T09:05:44.297Z,99231.98
2022-11-20T09:08:48.314Z,99231.98
2022-11-20T09:11:58.291Z,99226.81
2022-11-20T09:18:10.049Z,99225.59
2022-11-20T09:21:08.427Z,99226.42
2022-11-20T09:24:03.264Z,99226.41
2022-11-20T09:27:20.273Z,99226.92
2022-11-20T09:30:16.666Z,99222.59
2022-11-20T09:32:58.390Z,99221.37
2022-11-20T09:38:55.972Z,99217.94
2022-11-20T09:41:53.127Z,99213.29
2022-11-20T09:45:22.192Z,99214.48
2022-11-20T09:49:14.808Z,99216.02
2022-11-20T09:52:28.460Z,99206.55
2022-11-20T09:58:49.699Z,99199.65
2022-11-20T10:01:47.458Z,99195.34
2022-11-20T10:04:47.785Z,99187.56
2022-11-20T10:08:00.697Z,99184.27
2022-11-20T10:11:05.241Z,99185.45
2022-11-20T10:14:14.795Z,99179.23
2022-11-20T10:17:38.683Z,99173.69
2022-11-20T10:20:16.080Z,99178.10
2022-11-20T10:23:37.188Z,99177.71
2022-11-20T10:27:10.446Z,99175.41
2022-11-20T10:30:38.241Z,99173.64
2022-11-20T10:34:11.484Z,99177.23
2022-11-20T10:50:29.734Z,99164.92
2022-11-20T10:54:13.919Z,99163.65
2022-11-20T10:57:20.871Z,99162.36
2022-11-20T11:01:36.349Z,99162.98
2022-11-20T11:03:57.828Z,99155.02
2022-11-20T11:06:58.464Z,99149.26
2022-11-20T11:10:11.088Z,99148.32
2022-11-20T11:13:37.027Z,99139.80
2022-11-20T11:17:09.472Z,99142.31
2022-11-20T11:20:01.232Z,99141.15
2022-11-20T11:26:37.443Z,99135.81
2022-11-20T11:30:44.601Z,99128.10
2022-11-20T11:34:09.192Z,99122.45
2022-11-20T11:37:42.127Z,99116.98
2022-11-20T11:44:03.581Z,99113.52
2022-11-20T11:46:58.087Z,99116.39
2022-11-20T11:49:53.210Z,99115.82
2022-11-20T11:52:30.022Z,99110.30
2022-11-20T11:55:14.665Z,99112.02
2022-11-20T11:58:26.570Z,99115.80
2022-11-20T12:01:08.348Z,99110.98
2022-11-20T12:03:50.209Z,99111.73
2022-11-20T12:06:33.474Z,99110.56
2022-11-20T12:09:10.465Z,99109.08
2022-11-20T12:12:21.540Z,99106.35
2022-11-20T12:15:04.707Z,99099.16
2022-11-20T12:17:40.908Z,99093.46
2022-11-20T12:20:23.252Z,99087.23
2022-11-20T12:22:56.729Z,99087.06
2022-11-20T12:25:37.121Z,99080.70
2022-11-20T12:30:07.525Z,99084.64
2022-11-20T12:32:37.684Z,99085.55
2022-11-20T12:39:31.669Z,99086.31
2022-11-20T12:43:15.139Z,99085.13
2022-11-20T12:46:24.942Z,99078.92
2022-11-20T12:49:31.949Z,99077.23
2022-11-20T12:52:32.651Z,99072.79
2022-11-20T12:55:51.350Z,99068.83
2022-11-20T12:58:43.086Z,99067.25
2022-11-20T13:01:50.843Z,99064.11
2022-11-20T13:04:49.963Z,99062.70
2022-11-20T13:07:40.715Z,99069.13
2022-11-20T13:11:00.338Z,99062.02
2022-11-20T13:13:46.856Z,99055.94
2022-11-20T13:17:24.232Z,99051.27
2022-11-20T13:20:24.034Z,99046.98
2022-11-20T13:23:02.184Z,99048.35
2022-11-20T13:25:56.270Z,99044.70
2022-11-20T13:28:48.623Z,99046.60
2022-11-20T13:31:44.585Z,99045.88
2022-11-20T13:34:42.543Z,99045.84
2022-11-20T13:37:45.570Z,99040.61
2022-11-20T13:40:26.779Z,99041.92
2022-11-20T13:43:25.438Z,99042.89
2022-11-20T13:46:05.256Z,99045.11
2022-11-20T13:48:59.698Z,99042.95
2022-11-20T13:51:57.312Z,99040.92
2022-11-20T13:54:43.557Z,99034.70
2022-11-20T13:57:50.852Z,99030.41
2022-11-20T14:00:29.318Z,99024.78
2022-11-20T14:03:18.738Z,99020.66
2022-11-20T14:06:25.088Z,99015.66
2022-11-20T14:08:58.241Z,99014.91
2022-11-20T14:11:51.990Z,99015.54
2022-11-20T14:14:55.717Z,99018.02
2022-11-20T14:17:51.047Z,99017.85
2022-11-20T14:23:48.722Z,99017.64
2022-11-20T14:30:37.544Z,99013.23
2022-11-20T14:33:40.456Z,99011.88
2022-11-20T14:37:34.213Z,99010.55
2022-11-20T14:40:37.649Z,99011.30
2022-11-20T14:43:57.787Z,99013.09
2022-11-20T14:47:16.098Z,99012.30
2022-11-20T14:53:33.838Z,99010.72
2022-11-20T14:56:17.043Z,99013.89
2022-11-20T14:59:02.944Z,99015.33
2022-11-20T15:01:43.787Z,99016.25
2022-11-20T15:04:36.002Z,99014.60
2022-11-20T15:07:45.650Z,99015.88
2022-11-20T15:10:35.214Z,99013.36
2022-11-20T15:14:01.426Z,99013.45
2022-11-20T15:16:41.842Z,99021.00
2022-11-20T15:19:32.842Z,99028.37
2022-11-20T15:22:26.802Z,99026.80
2022-11-20T15:25:30.914Z,99028.67
2022-11-20T15:29:05.311Z,99021.88
2022-11-20T15:31:53.706Z,99019.73
2022-11-20T15:34:55.086Z,99019.97
2022-11-20T15:37:58.526Z,99025.04
2022-11-20T15:40:53.162Z,99027.67
2022-11-20T15:44:08.095Z,99031.52
2022-11-20T15:47:06.992Z,99026.21
2022-11-20T15:50:17.134Z,99018.83
2022-11-20T15:56:52.758Z,99010.95
2022-11-20T16:00:02.232Z,99002.39
2022-11-20T16:02:54.546Z,99006.38
2022-11-20T16:05:45.438Z,99002.62
2022-11-20T16:08:31.249Z,98999.58
2022-11-20T16:11:05.927Z,98997.20
2022-11-20T16:14:13.850Z,98993.95
2022-11-20T16:16:47.011Z,98993.11
2022-11-20T16:19:18.508Z,98994.33
2022-11-20T16:21:48.500Z,98993.65
2022-11-20T16:24:22.648Z,98996.05
2022-11-20T16:26:55.278Z,98992.10
2022-11-20T16:29:27.391Z,98995.56
2022-11-20T16:31:58.844Z,98997.27
2022-11-20T16:34:28.827Z,98997.29
2022-11-20T16:36:59.085Z,98994.04
2022-11-20T16:39:29.811Z,98993.19
2022-11-20T16:42:00.279Z,98995.27
2022-11-20T16:44:32.311Z,98987.58
2022-11-20T16:47:04.955Z,98985.35
2022-11-20T16:49:34.954Z,98986.06
2022-11-20T16:52:07.069Z,98991.25
2022-11-20T16:54:36.609Z,98997.30
2022-11-20T16:57:05.915Z,98992.69
2022-11-20T16:59:34.637Z,98995.45
2022-11-20T17:02:05.587Z,98995.49
2022-11-20T17:04:35.812Z,98996.58
2022-11-20T17:07:08.092Z,98998.16
2022-11-20T17:09:37.085Z,98999.23
2022-11-20T17:12:06.687Z,98997.39
2022-11-20T17:14:35.809Z,98990.73
2022-11-20T17:17:04.470Z,98989.91
2022-11-20T17:19:33.050Z,98992.33
2022-11-20T17:22:01.703Z,98990.80
2022-11-20T17:24:32.173Z,98994.47
2022-11-20T17:27:02.083Z,98998.27
2022-11-20T17:29:31.645Z,98996.70
2022-11-20T17:32:00.033Z,98996.02
2022-11-20T17:34:29.471Z,98990.50
2022-11-20T17:36:58.261Z,98985.67
2022-11-20T17:39:27.795Z,98987.05
2022-11-20T17:42:15.734Z,98986.00
2022-11-20T17:44:45.180Z,98979.29
2022-11-20T17:47:14.208Z,98979.79
2022-11-20T17:49:42.746Z,98984.42
2022-11-20T17:52:11.990Z,98987.67
2022-11-20T17:54:42.041Z,98986.84
2022-11-20T17:57:29.508Z,98988.35
2022-11-20T17:59:58.630Z,98992.63
2022-11-20T18:02:27.596Z,98995.88
2022-11-20T18:04:56.913Z,98993.96
2022-11-20T18:07:26.989Z,98995.69
2022-11-20T18:09:56.057Z,98996.71
2022-11-20T18:12:24.923Z,98995.01
2022-11-20T18:14:53.757Z,98994.85
2022-11-20T18:17:23.982Z,98993.48
2022-11-20T18:20:14.212Z,98992.80
2022-11-20T18:22:42.593Z,98990.56
2022-11-20T18:25:12.183Z,98989.72
2022-11-20T18:27:41.093Z,98984.91
2022-11-20T18:30:10.320Z,98986.10
2022-11-20T18:32:39.519Z,98983.88
2022-11-20T18:35:08.807Z,98986.66
2022-11-20T18:37:37.064Z,98987.02
2022-11-20T18:40:07.529Z,98986.36
2022-11-20T18:42:57.904Z,98984.14
2022-11-20T18:45:28.313Z,98987.23
2022-11-20T18:47:56.535Z,98985.68
2022-11-20T18:50:24.791Z,98985.14
2022-11-20T18:52:52.927Z,98978.43
2022-11-20T18:55:25.363Z,98977.05
2022-11-20T18:57:55.771Z,98974.98
2022-11-20T19:00:27.017Z,98977.23
2022-11-20T19:02:56.701Z,98975.99
2022-11-20T19:05:26.439Z,98978.06
2022-11-20T19:07:58.643Z,98977.20
2022-11-20T19:10:27.559Z,98976.01
2022-11-20T19:12:59.536Z,98975.66
2022-11-20T19:15:28.089Z,98974.63
2022-11-20T19:17:58.073Z,98975.30
2022-11-20T19:20:27.219Z,98976.52
2022-11-20T19:22:56.604Z,98975.64
2022-11-20T19:25:26.319Z,98975.99
2022-11-20T19:27:58.629Z,98976.17
2022-11-20T19:30:28.312Z,98975.83
2022-11-20T19:32:58.627Z,98975.66
2022-11-20T19:35:26.969Z,98975.66
2022-11-20T19:37:58.297Z,98981.52
2022-11-20T19:40:30.972Z,98982.20
2022-11-20T19:42:59.486Z,98983.08
2022-11-20T19:45:28.135Z,98980.52
2022-11-20T19:48:08.035Z,98980.38
2022-11-20T19:50:38.015Z,98980.59
2022-11-20T19:53:07.671Z,98980.80
2022-11-20T19:55:35.800Z,98983.76
2022-11-20T19:58:08.086Z,98982.60
2022-11-20T20:00:36.305Z,98983.16
2022-11-20T20:03:07.871Z,98986.46
2022-11-20T20:05:36.850Z,98987.17
2022-11-20T20:08:05.962Z,98988.23
2022-11-20T20:10:34.724Z,98983.79
2022-11-20T20:13:03.831Z,98986.91
2022-11-20T20:15:32.385Z,98986.91
2022-11-20T20:18:01.097Z,98982.64
2022-11-20T20:20:29.614Z,98982.15
2022-11-20T20:22:58.063Z,98976.33
2022-11-20T20:25:28.574Z,98978.24
2022-11-20T20:27:57.467Z,98979.64
2022-11-20T20:30:27.972Z,98982.08
2022-11-20T20:32:57.272Z,98984.15
2022-11-20T20:35:25.889Z,98983.48
2022-11-20T20:37:55.986Z,98978.86
2022-11-20T20:40:24.946Z,98982.98
2022-11-20T20:42:53.389Z,98982.65
2022-11-20T20:45:21.924Z,98979.24
2022-11-20T20:47:50.759Z,98978.91
2022-11-20T20:50:19.502Z,98976.36
2022-11-20T20:52:48.927Z,98976.73
2022-11-20T20:55:17.138Z,98977.09
2022-11-20T20:57:45.773Z,98981.40
2022-11-20T21:00:15.175Z,98975.40
2022-11-20T21:02:43.204Z,98975.24
2022-11-20T21:05:11.363Z,98974.22
2022-11-20T21:07:59.689Z,98975.10
2022-11-20T21:10:28.148Z,98974.77
2022-11-20T21:12:59.209Z,98977.71
2022-11-20T21:15:29.083Z,98975.16
2022-11-20T21:18:00.124Z,98972.79
2022-11-20T21:20:48.409Z,98973.65
2022-11-20T21:23:18.743Z,98972.31
2022-11-20T21:25:47.523Z,98975.58
2022-11-20T21:28:18.322Z,98981.08
2022-11-20T21:30:47.808Z,98976.98
2022-11-20T21:33:16.342Z,98974.41
2022-11-20T21:35:44.581Z,98962.75
2022-11-20T21:38:12.703Z,98952.65
2022-11-20T21:40:40.829Z,98954.02
2022-11-20T21:43:08.929Z,98952.98
2022-11-20T21:45:37.735Z,98952.83
2022-11-20T21:48:06.775Z,98949.75
2022-11-20T21:50:35.448Z,98947.02
2022-11-20T21:53:03.523Z,98943.77
2022-11-20T21:55:32.109Z,98943.93
2022-11-20T21:58:01.417Z,98941.72
2022-11-20T22:00:30.925Z,98940.18
2022-11-20T22:02:59.520Z,98940.02
2022-11-20T22:05:27.714Z,98937.27
2022-11-20T22:07:56.157Z,98936.77
2022-11-20T22:10:25.912Z,98931.13
2022-11-20T22:13:13.951Z,98929.92
2022-11-20T22:15:59.703Z,98928.73
2022-11-20T22:18:29.174Z,98925.82
2022-11-20T22:20:57.489Z,98922.07
2022-11-20T22:23:25.705Z,98922.59
2022-11-20T22:25:54.011Z,98921.39
2022-11-20T22:28:22.205Z,98923.11
2022-11-20T22:30:50.250Z,98919.01
2022-11-20T22:33:18.287Z,98914.90
2022-11-20T22:35:46.747Z,98915.42
2022-11-20T22:38:14.938Z,98912.86
2022-11-20T22:40:44.497Z,98907.39
2022-11-20T22:43:12.734Z,98907.91
2022-11-20T22:45:41.223Z,98901.23
2022-11-20T22:48:09.645Z,98894.55
2022-11-20T22:50:37.786Z,98887.67
2022-11-20T22:53:05.897Z,98883.23
2022-11-20T22:55:34.361Z,98887.36
2022-11-20T22:58:02.436Z,98887.02
2022-11-20T23:00:30.921Z,98887.36
2022-11-20T23:02:59.465Z,98885.48
2022-11-20T23:05:27.532Z,98882.40
2022-11-20T23:07:55.609Z,98880.50
2022-11-20T23:10:23.746Z,98879.48
2022-11-20T23:12:51.948Z,98876.57
2022-11-20T23:15:20.303Z,98879.16
2022-11-20T23:17:48.396Z,98875.73
2022-11-20T23:20:16.897Z,98870.08
2022-11-20T23:22:45.438Z,98866.31
2022-11-20T23:25:13.486Z,98863.58
2022-11-20T23:27:41.575Z,98858.28
2022-11-20T23:30:10.545Z,98859.13
2022-11-20T23:32:39.063Z,98858.45
2022-11-20T23:35:07.921Z,98850.59
2022-11-20T23:37:37.540Z,98845.97
2022-11-20T23:40:06.736Z,98856.25
2022-11-20T23:42:34.922Z,98858.48
2022-11-20T23:45:03.122Z,98854.53
2022-11-20T23:47:31.678Z,98849.41
2022-11-20T23:49:59.662Z,98841.35
2022-11-20T23:52:27.711Z,98837.25
2022-11-20T23:54:56.047Z,98835.02
2022-11-20T23:57:24.158Z,98832.45
2022-11-20T23:59:52.768Z,98829.20
